createdAt,value
2023-01-21T00:01:01.497Z,7.20
2023-01-21T00:03:28.718Z,7.05
2023-01-21T00:05:58.390Z,7.02
2023-01-21T00:08:26.330Z,6.96
2023-01-21T00:10:53.738Z,6.86
2023-01-21T00:13:20.945Z,6.97
2023-01-21T00:15:48.738Z,6.99
2023-01-21T00:18:16.060Z,7.06
2023-01-21T00:20:43.424Z,7.19
2023-01-21T00:23:11.173Z,7.19
2023-01-21T00:25:38.362Z,7.20
2023-01-21T00:28:05.695Z,7.16
2023-01-21T00:30:33.361Z,7.04
2023-01-21T00:33:00.604Z,7.08
2023-01-21T00:35:27.847Z,7.12
2023-01-21T00:37:55.128Z,6.90
2023-01-21T00:40:22.372Z,7.04
2023-01-21T00:42:49.635Z,6.94
2023-01-21T00:45:17.049Z,7.09
2023-01-21T00:47:44.304Z,7.19
2023-01-21T00:50:11.828Z,7.24
2023-01-21T00:52:39.100Z,7.29
2023-01-21T00:55:06.672Z,7.18
2023-01-21T00:57:34.162Z,7.18
2023-01-21T01:00:01.415Z,7.26
2023-01-21T01:02:28.621Z,7.14
2023-01-21T01:04:56.025Z,7.14
2023-01-21T01:07:23.965Z,7.12
2023-01-21T01:09:51.226Z,7.16
2023-01-21T01:12:18.484Z,7.04
2023-01-21T01:14:45.680Z,7.17
2023-01-21T01:17:12.869Z,7.20
2023-01-21T01:19:40.083Z,7.23
2023-01-21T01:22:07.302Z,7.13
2023-01-21T01:24:34.455Z,6.98
2023-01-21T01:27:01.957Z,6.99
2023-01-21T01:29:29.186Z,7.16
2023-01-21T01:31:56.439Z,7.10
2023-01-21T01:34:23.685Z,7.07
2023-01-21T01:36:50.887Z,7.10
2023-01-21T01:39:18.103Z,7.27
2023-01-21T01:41:45.370Z,7.17
2023-01-21T01:44:50.527Z,7.04
2023-01-21T01:47:17.727Z,7.03
2023-01-21T01:49:44.927Z,6.92
2023-01-21T01:52:12.158Z,6.96
2023-01-21T01:54:50.016Z,6.90
2023-01-21T01:57:18.534Z,6.87
2023-01-21T01:59:46.220Z,6.85
2023-01-21T02:02:15.144Z,6.91
2023-01-21T02:04:48.226Z,6.82
2023-01-21T02:07:16.093Z,6.68
2023-01-21T02:09:43.328Z,6.58
2023-01-21T02:12:10.568Z,6.73
2023-01-21T02:14:43.126Z,6.52
2023-01-21T02:17:17.652Z,6.56
2023-01-21T02:20:03.780Z,6.70
2023-01-21T02:22:40.185Z,6.75
2023-01-21T02:25:27.292Z,6.73
2023-01-21T02:28:32.260Z,6.86
2023-01-21T02:30:59.585Z,6.85
2023-01-21T02:33:53.155Z,7.12
2023-01-21T02:37:06.117Z,7.13
2023-01-21T02:40:09.002Z,7.19
2023-01-21T02:42:51.065Z,7.11
2023-01-21T02:45:28.380Z,7.28
2023-01-21T02:48:16.795Z,7.31
2023-01-21T02:50:52.875Z,7.34
2023-01-21T02:53:27.533Z,7.37
2023-01-21T02:55:55.028Z,7.28
2023-01-21T02:58:29.526Z,7.09
2023-01-21T03:01:14.583Z,6.89
2023-01-21T03:04:03.963Z,6.78
2023-01-21T03:06:49.164Z,6.78
2023-01-21T03:09:27.249Z,6.78
2023-01-21T03:12:26.310Z,6.98
2023-01-21T03:15:30.160Z,7.04
2023-01-21T03:18:06.643Z,6.93
2023-01-21T03:20:45.379Z,6.93
2023-01-21T03:23:18.199Z,6.87
2023-01-21T03:25:45.517Z,7.02
2023-01-21T03:28:14.099Z,7.06
2023-01-21T03:30:42.660Z,7.22
2023-01-21T03:33:10.341Z,7.22
2023-01-21T03:35:40.857Z,7.21
2023-01-21T03:38:31.781Z,7.07
2023-01-21T03:41:20.657Z,6.89
2023-01-21T03:43:47.809Z,6.85
2023-01-21T03:46:20.975Z,6.63
2023-01-21T03:49:05.086Z,6.52
2023-01-21T03:51:39.564Z,6.52
2023-01-21T03:54:06.713Z,6.52
2023-01-21T03:56:33.920Z,6.56
2023-01-21T03:59:01.129Z,6.76
2023-01-21T04:01:28.325Z,6.73
2023-01-21T04:03:55.508Z,6.54
2023-01-21T04:06:23.189Z,6.60
2023-01-21T04:08:50.434Z,6.51
2023-01-21T04:11:17.575Z,6.58
2023-01-21T04:13:45.022Z,6.54
2023-01-21T04:16:12.267Z,6.60
2023-01-21T04:18:39.563Z,6.59
2023-01-21T04:21:06.872Z,6.56
2023-01-21T04:23:34.189Z,6.53
2023-01-21T04:26:01.489Z,6.30
2023-01-21T04:28:28.782Z,6.51
2023-01-21T04:30:56.107Z,6.60
2023-01-21T04:33:23.826Z,6.77
2023-01-21T04:35:51.034Z,6.67
2023-01-21T04:38:18.397Z,6.73
2023-01-21T04:40:45.630Z,6.74
2023-01-21T04:43:12.790Z,6.59
2023-01-21T04:45:40.087Z,6.68
2023-01-21T04:48:07.910Z,6.63
2023-01-21T04:50:35.210Z,6.50
2023-01-21T04:53:02.374Z,6.57
2023-01-21T04:55:29.567Z,6.57
2023-01-21T04:57:56.763Z,6.47
2023-01-21T05:00:24.052Z,6.43
2023-01-21T05:02:51.267Z,6.44
2023-01-21T05:05:18.491Z,6.52
2023-01-21T05:07:45.748Z,6.47
2023-01-21T05:10:17.335Z,6.37
2023-01-21T05:12:44.852Z,6.30
2023-01-21T05:15:12.041Z,6.33
2023-01-21T05:17:39.416Z,6.34
2023-01-21T05:20:07.063Z,6.57
2023-01-21T05:22:34.222Z,6.63
2023-01-21T05:25:01.925Z,6.61
2023-01-21T05:27:29.230Z,6.73
2023-01-21T05:29:57.360Z,6.77
2023-01-21T05:32:24.752Z,6.70
2023-01-21T05:34:51.982Z,6.60
2023-01-21T05:37:19.264Z,6.61
2023-01-21T05:39:46.541Z,6.67
2023-01-21T05:42:13.732Z,6.67
2023-01-21T05:44:40.970Z,6.59
2023-01-21T05:47:09.046Z,6.53
2023-01-21T05:49:36.547Z,6.56
2023-01-21T05:52:03.956Z,6.73
2023-01-21T05:54:31.254Z,6.57
2023-01-21T05:56:58.466Z,6.61
2023-01-21T05:59:25.670Z,6.61
2023-01-21T06:01:53.062Z,6.69
2023-01-21T06:04:21.837Z,6.77
2023-01-21T06:06:51.007Z,6.77
2023-01-21T06:09:18.084Z,6.51
2023-01-21T06:11:45.239Z,6.40
2023-01-21T06:14:12.830Z,6.55
2023-01-21T06:16:40.275Z,6.76
2023-01-21T06:19:07.612Z,6.58
2023-01-21T06:21:34.839Z,6.65
2023-01-21T06:24:02.857Z,6.63
2023-01-21T06:26:30.119Z,6.73
2023-01-21T06:28:57.639Z,6.76
2023-01-21T06:31:24.954Z,6.76
2023-01-21T06:33:52.557Z,6.84
2023-01-21T06:36:19.755Z,6.87
2023-01-21T06:38:46.965Z,6.98
2023-01-21T06:41:14.200Z,7.13
2023-01-21T06:43:41.379Z,7.07
2023-01-21T06:46:08.641Z,7.09
2023-01-21T06:48:35.960Z,7.08
2023-01-21T06:51:03.201Z,7.11
2023-01-21T06:53:30.767Z,7.28
2023-01-21T06:55:57.913Z,7.19
2023-01-21T06:58:25.227Z,7.00
2023-01-21T07:00:52.381Z,7.10
2023-01-21T07:03:19.826Z,7.14
2023-01-21T07:05:47.109Z,6.98
2023-01-21T07:08:14.793Z,7.11
2023-01-21T07:10:43.346Z,6.97
2023-01-21T07:13:10.517Z,6.97
2023-01-21T07:15:37.737Z,7.16
2023-01-21T07:18:05.007Z,7.18
2023-01-21T07:20:32.214Z,7.22
2023-01-21T07:22:59.499Z,7.27
2023-01-21T07:25:26.771Z,7.21
2023-01-21T07:27:53.940Z,7.25
2023-01-21T07:30:21.591Z,7.38
2023-01-21T07:32:48.858Z,7.40
2023-01-21T07:35:16.500Z,7.17
2023-01-21T07:37:44.281Z,7.24
2023-01-21T07:40:12.011Z,7.38
2023-01-21T07:42:39.279Z,7.45
2023-01-21T07:45:07.401Z,7.31
2023-01-21T07:47:34.944Z,7.45
2023-01-21T07:50:05.284Z,7.42
2023-01-21T07:52:32.576Z,7.54
2023-01-21T07:55:01.904Z,7.46
2023-01-21T07:57:29.967Z,7.53
2023-01-21T07:59:57.937Z,7.62
2023-01-21T08:02:25.432Z,7.73
2023-01-21T08:04:52.801Z,7.56
2023-01-21T08:07:19.997Z,7.57
2023-01-21T08:09:47.183Z,7.69
2023-01-21T08:12:14.521Z,7.77
2023-01-21T08:14:41.728Z,7.82
2023-01-21T08:17:08.928Z,7.43
2023-01-21T08:19:36.429Z,7.65
2023-01-21T08:22:03.640Z,7.78
2023-01-21T08:24:30.958Z,7.82
2023-01-21T08:27:01.286Z,8.05
2023-01-21T08:29:28.526Z,8.16
2023-01-21T08:31:55.835Z,8.33
2023-01-21T08:34:23.484Z,8.06
2023-01-21T08:36:50.911Z,8.05
2023-01-21T08:39:18.177Z,8.22
2023-01-21T08:41:46.263Z,8.30
2023-01-21T08:44:13.496Z,8.33
2023-01-21T08:46:40.847Z,8.18
2023-01-21T08:49:08.229Z,8.29
2023-01-21T08:51:35.620Z,8.16
2023-01-21T08:54:05.492Z,8.28
2023-01-21T08:56:32.968Z,8.38
2023-01-21T08:59:00.399Z,8.68
2023-01-21T09:01:27.677Z,8.63
2023-01-21T09:03:58.918Z,8.82
2023-01-21T09:06:27.561Z,8.78
2023-01-21T09:08:55.198Z,8.58
2023-01-21T09:11:22.767Z,8.71
2023-01-21T09:13:50.294Z,8.89
2023-01-21T09:16:19.779Z,8.82
2023-01-21T09:18:47.741Z,8.85
2023-01-21T09:21:15.110Z,8.74
2023-01-21T09:23:42.387Z,8.99
2023-01-21T09:26:17.484Z,9.24
2023-01-21T09:28:46.165Z,9.21
2023-01-21T09:31:15.322Z,9.36
2023-01-21T09:33:44.489Z,9.57
2023-01-21T09:36:14.783Z,9.56
2023-01-21T09:38:43.422Z,9.28
2023-01-21T09:41:19.860Z,9.66
2023-01-21T09:43:51.822Z,9.83
2023-01-21T09:46:36.135Z,9.63
2023-01-21T09:49:04.410Z,9.49
2023-01-21T09:51:42.969Z,9.31
2023-01-21T09:54:18.419Z,9.39
2023-01-21T09:57:00.660Z,9.44
2023-01-21T09:59:53.591Z,9.48
2023-01-21T10:02:52.128Z,9.70
2023-01-21T10:05:25.372Z,10.11
2023-01-21T10:08:20.914Z,10.20
2023-01-21T10:11:09.869Z,10.26
2023-01-21T10:13:46.299Z,10.39
2023-01-21T10:16:22.467Z,10.44
2023-01-21T10:18:51.007Z,10.43
2023-01-21T10:21:30.409Z,10.51
2023-01-21T10:24:21.995Z,10.94
2023-01-21T10:26:49.769Z,11.35
2023-01-21T10:29:18.657Z,11.87
2023-01-21T10:31:51.929Z,12.10
2023-01-21T10:34:19.407Z,11.64
2023-01-21T10:36:54.819Z,11.47
2023-01-21T10:39:34.380Z,11.94
2023-01-21T10:42:39.760Z,12.32
2023-01-21T10:45:18.758Z,12.33
2023-01-21T10:48:26.884Z,12.25
2023-01-21T10:51:07.291Z,12.66
2023-01-21T10:53:37.650Z,13.28
2023-01-21T10:56:29.757Z,12.96
2023-01-21T10:59:00.952Z,12.92
2023-01-21T11:01:30.271Z,12.93
2023-01-21T11:03:59.035Z,12.87
2023-01-21T11:06:26.311Z,12.64
2023-01-21T11:08:56.908Z,12.66
2023-01-21T11:11:32.176Z,12.66
2023-01-21T11:13:59.442Z,12.55
2023-01-21T11:16:38.439Z,12.59
2023-01-21T11:19:06.553Z,12.59
2023-01-21T11:21:35.112Z,12.78
2023-01-21T11:24:05.128Z,12.64
2023-01-21T11:26:33.930Z,12.64
2023-01-21T11:29:18.380Z,12.50
2023-01-21T11:31:50.030Z,12.17
2023-01-21T11:34:21.617Z,12.15
2023-01-21T11:37:04.858Z,12.28
2023-01-21T11:39:51.731Z,12.11
2023-01-21T11:42:18.947Z,11.94
2023-01-21T11:45:06.049Z,11.88
2023-01-21T11:47:37.539Z,11.87
2023-01-21T11:50:12.793Z,11.97
2023-01-21T11:52:40.120Z,11.91
2023-01-21T11:55:25.465Z,11.73
2023-01-21T11:57:54.225Z,11.73
2023-01-21T12:00:24.107Z,11.50
2023-01-21T12:02:53.480Z,11.39
2023-01-21T12:05:34.923Z,11.37
2023-01-21T12:08:03.812Z,11.14
2023-01-21T12:10:36.462Z,11.28
2023-01-21T12:13:22.975Z,11.24
2023-01-21T12:15:56.361Z,11.54
2023-01-21T12:18:49.077Z,11.28
2023-01-21T12:21:19.410Z,11.28
2023-01-21T12:24:06.048Z,11.27
2023-01-21T12:26:41.510Z,11.10
2023-01-21T12:29:40.313Z,10.60
2023-01-21T12:32:21.043Z,10.79
2023-01-21T12:35:14.299Z,10.76
2023-01-21T12:37:47.238Z,10.91
2023-01-21T12:40:20.657Z,11.18
2023-01-21T12:42:50.254Z,11.25
2023-01-21T12:45:22.682Z,11.33
2023-01-21T12:48:01.724Z,11.37
2023-01-21T12:50:51.322Z,11.32
2023-01-21T12:53:36.950Z,11.25
2023-01-21T12:56:39.520Z,11.32
2023-01-21T12:59:21.948Z,11.20
2023-01-21T13:01:52.295Z,11.35
2023-01-21T13:04:33.051Z,11.40
2023-01-21T13:07:05.080Z,11.45
2023-01-21T13:09:44.367Z,11.25
2023-01-21T13:12:22.181Z,11.15
2023-01-21T13:15:00.556Z,11.13
2023-01-21T13:17:29.680Z,11.01
2023-01-21T13:19:56.902Z,11.00
2023-01-21T13:22:58.150Z,11.11
2023-01-21T13:25:40.319Z,11.17
2023-01-21T13:28:34.636Z,11.30
2023-01-21T13:31:19.474Z,11.52
2023-01-21T13:33:56.419Z,11.46
2023-01-21T13:36:30.158Z,11.42
2023-01-21T13:39:00.330Z,11.21
2023-01-21T13:41:37.188Z,11.29
2023-01-21T13:44:19.783Z,11.17
2023-01-21T13:46:55.320Z,11.18
2023-01-21T13:49:41.615Z,11.26
2023-01-21T13:52:21.567Z,11.29
2023-01-21T13:55:06.049Z,11.11
2023-01-21T13:57:43.491Z,10.96
2023-01-21T14:00:17.789Z,10.91
2023-01-21T14:02:50.855Z,10.82
2023-01-21T14:05:24.307Z,10.79
2023-01-21T14:07:56.415Z,10.74
2023-01-21T14:10:40.757Z,10.61
2023-01-21T14:13:42.398Z,10.58
2023-01-21T14:16:18.808Z,10.56
2023-01-21T14:19:02.264Z,10.57
2023-01-21T14:21:37.574Z,10.50
2023-01-21T14:24:34.214Z,10.37
2023-01-21T14:27:17.944Z,10.37
2023-01-21T14:29:48.016Z,10.26
2023-01-21T14:33:00.311Z,10.32
2023-01-21T14:35:36.577Z,10.29
2023-01-21T14:38:48.795Z,10.23
2023-01-21T14:41:15.897Z,10.04
2023-01-21T14:43:44.625Z,10.07
2023-01-21T14:46:25.360Z,10.09
2023-01-21T14:49:06.574Z,9.93
2023-01-21T14:51:44.939Z,10.05
2023-01-21T14:54:17.509Z,10.02
2023-01-21T14:57:13.645Z,9.97
2023-01-21T14:59:46.502Z,9.97
2023-01-21T15:02:33.904Z,10.11
2023-01-21T15:05:03.170Z,10.16
2023-01-21T15:07:41.637Z,10.08
2023-01-21T15:10:11.081Z,10.02
2023-01-21T15:12:38.655Z,10.10
2023-01-21T15:15:29.614Z,10.02
2023-01-21T15:18:04.199Z,9.94
2023-01-21T15:21:00.955Z,10.03
2023-01-21T15:23:31.275Z,10.22
2023-01-21T15:26:07.719Z,10.10
2023-01-21T15:28:40.611Z,10.04
2023-01-21T15:31:21.147Z,10.05
2023-01-21T15:33:50.649Z,10.11
2023-01-21T15:36:26.435Z,10.08
2023-01-21T15:38:59.621Z,10.08
2023-01-21T15:41:56.170Z,9.92
2023-01-21T15:44:32.845Z,10.04
2023-01-21T15:47:38.443Z,10.05
2023-01-21T15:50:13.485Z,9.86
2023-01-21T15:52:43.702Z,9.69
2023-01-21T15:55:38.677Z,9.66
2023-01-21T15:58:40.277Z,9.68
2023-01-21T16:01:27.042Z,9.69
2023-01-21T16:04:08.887Z,9.45
2023-01-21T16:06:49.168Z,9.46
2023-01-21T16:09:38.060Z,9.18
2023-01-21T16:12:24.088Z,9.41
2023-01-21T16:15:05.377Z,9.40
2023-01-21T16:17:38.775Z,9.21
2023-01-21T16:20:06.944Z,9.20
2023-01-21T16:22:35.089Z,9.41
2023-01-21T16:25:12.757Z,9.52
2023-01-21T16:27:49.023Z,9.50
2023-01-21T16:30:20.026Z,9.44
2023-01-21T16:32:47.387Z,9.42
2023-01-21T16:35:15.184Z,9.32
2023-01-21T16:37:44.506Z,9.29
2023-01-21T16:40:11.711Z,9.35
2023-01-21T16:42:42.720Z,9.29
2023-01-21T16:45:20.723Z,9.36
2023-01-21T16:47:54.090Z,9.33
2023-01-21T16:50:28.974Z,9.16
2023-01-21T16:52:56.823Z,9.19
2023-01-21T16:55:28.407Z,9.26
2023-01-21T16:57:57.387Z,9.28
2023-01-21T17:00:31.924Z,9.35
2023-01-21T17:02:59.790Z,9.36
2023-01-21T17:05:28.884Z,9.34
2023-01-21T17:07:58.328Z,9.31
2023-01-21T17:10:37.832Z,9.27
2023-01-21T17:13:06.627Z,9.08
2023-01-21T17:15:37.754Z,9.04
2023-01-21T17:18:32.001Z,8.95
2023-01-21T17:21:00.497Z,9.00
2023-01-21T17:23:30.183Z,9.13
2023-01-21T17:26:01.047Z,9.01
2023-01-21T17:28:30.777Z,9.04
2023-01-21T17:31:14.978Z,8.88
2023-01-21T17:33:49.612Z,8.91
2023-01-21T17:36:18.604Z,8.92
2023-01-21T17:38:46.712Z,8.82
2023-01-21T17:41:24.883Z,8.76
2023-01-21T17:43:53.177Z,8.79
2023-01-21T17:46:22.875Z,8.74
2023-01-21T17:48:59.183Z,8.88
2023-01-21T17:51:28.667Z,8.75
2023-01-21T17:54:04.085Z,8.80
2023-01-21T17:56:39.815Z,8.90
2023-01-21T17:59:34.631Z,8.85
2023-01-21T18:02:02.876Z,8.88
2023-01-21T18:04:30.365Z,8.92
2023-01-21T18:06:57.637Z,8.95
2023-01-21T18:09:26.320Z,8.96
2023-01-21T18:11:55.418Z,8.30
2023-01-21T18:14:26.187Z,8.33
2023-01-21T18:16:56.357Z,8.28
2023-01-21T18:19:35.393Z,8.27
2023-01-21T18:22:04.310Z,8.17
2023-01-21T18:24:31.868Z,8.10
2023-01-21T18:26:59.753Z,8.24
2023-01-21T18:29:30.784Z,8.17
2023-01-21T18:31:58.527Z,8.23
2023-01-21T18:34:25.897Z,8.11
2023-01-21T18:36:53.208Z,8.11
2023-01-21T18:39:20.825Z,8.10
2023-01-21T18:41:48.091Z,8.11
2023-01-21T18:44:15.426Z,8.06
2023-01-21T18:46:43.677Z,8.03
2023-01-21T18:49:19.296Z,8.06
2023-01-21T18:51:46.733Z,8.18
2023-01-21T18:54:14.799Z,8.19
2023-01-21T18:56:42.991Z,8.19
2023-01-21T18:59:15.147Z,8.32
2023-01-21T19:01:42.940Z,8.27
2023-01-21T19:04:12.074Z,8.28
2023-01-21T19:06:40.129Z,8.28
2023-01-21T19:09:21.717Z,8.22
2023-01-21T19:11:49.221Z,8.29
2023-01-21T19:14:16.973Z,8.18
2023-01-21T19:16:44.483Z,8.12
2023-01-21T19:19:16.139Z,8.10
2023-01-21T19:21:43.504Z,8.07
2023-01-21T19:24:12.276Z,8.01
2023-01-21T19:26:39.784Z,8.12
2023-01-21T19:29:10.913Z,8.21
2023-01-21T19:31:38.299Z,8.03
2023-01-21T19:34:05.664Z,8.03
2023-01-21T19:36:33.305Z,8.08
2023-01-21T19:39:01.812Z,8.02
2023-01-21T19:41:29.261Z,8.08
2023-01-21T19:43:56.527Z,8.16
2023-01-21T19:46:24.186Z,8.05
2023-01-21T19:48:53.884Z,7.92
2023-01-21T19:51:21.224Z,7.98
2023-01-21T19:53:48.426Z,8.09
2023-01-21T19:56:22.613Z,8.08
2023-01-21T19:58:50.044Z,8.16
2023-01-21T20:01:17.344Z,8.16
2023-01-21T20:03:58.588Z,8.22
2023-01-21T20:06:28.260Z,8.20
2023-01-21T20:08:55.674Z,8.27
2023-01-21T20:11:23.446Z,8.21
2023-01-21T20:13:51.051Z,8.24
2023-01-21T20:16:19.375Z,8.34
2023-01-21T20:18:48.015Z,8.32
2023-01-21T20:21:15.221Z,8.27
2023-01-21T20:23:42.834Z,8.12
2023-01-21T20:26:18.414Z,8.09
2023-01-21T20:28:50.428Z,8.05
2023-01-21T20:31:18.268Z,7.93
2023-01-21T20:33:45.734Z,7.88
2023-01-21T20:36:20.570Z,8.05
2023-01-21T20:38:47.783Z,8.17
2023-01-21T20:41:14.994Z,8.29
2023-01-21T20:43:42.412Z,8.22
2023-01-21T20:46:17.584Z,8.10
2023-01-21T20:48:44.976Z,7.99
2023-01-21T20:51:12.420Z,7.87
2023-01-21T20:53:39.766Z,7.76
2023-01-21T20:56:18.700Z,7.72
2023-01-21T20:58:48.098Z,7.75
2023-01-21T21:01:16.016Z,7.88
2023-01-21T21:03:43.337Z,7.78
2023-01-21T21:06:21.656Z,7.73
2023-01-21T21:08:49.381Z,7.72
2023-01-21T21:11:16.982Z,7.59
2023-01-21T21:13:46.619Z,7.58
2023-01-21T21:16:30.145Z,7.61
2023-01-21T21:18:58.551Z,7.60
2023-01-21T21:21:25.759Z,7.68
2023-01-21T21:23:53.266Z,7.86
2023-01-21T21:26:23.204Z,7.83
2023-01-21T21:28:51.211Z,7.87
2023-01-21T21:31:18.668Z,8.07
2023-01-21T21:33:46.029Z,7.85
2023-01-21T21:36:17.465Z,7.79
2023-01-21T21:38:44.756Z,7.66
2023-01-21T21:41:35.244Z,7.70
2023-01-21T21:44:02.841Z,7.74
2023-01-21T21:46:48.758Z,7.84
2023-01-21T21:49:16.263Z,7.82
2023-01-21T21:51:45.572Z,7.86
2023-01-21T21:54:14.151Z,7.91
2023-01-21T21:56:41.479Z,7.83
2023-01-21T21:59:08.741Z,7.73
2023-01-21T22:01:36.290Z,7.71
2023-01-21T22:04:04.154Z,7.83
2023-01-21T22:06:31.835Z,7.88
2023-01-21T22:08:59.255Z,7.81
2023-01-21T22:11:26.866Z,7.76
2023-01-21T22:13:54.935Z,7.77
2023-01-21T22:16:24.108Z,7.87
2023-01-21T22:18:52.315Z,7.88
2023-01-21T22:21:22.125Z,7.93
2023-01-21T22:23:50.182Z,7.90
2023-01-21T22:26:22.103Z,7.93
2023-01-21T22:28:51.438Z,7.85
2023-01-21T22:31:27.013Z,7.68
2023-01-21T22:33:54.601Z,7.67
2023-01-21T22:36:23.552Z,7.53
2023-01-21T22:38:51.040Z,7.57
2023-01-21T22:41:20.195Z,7.72
2023-01-21T22:43:50.757Z,7.76
2023-01-21T22:46:26.278Z,7.88
2023-01-21T22:48:54.083Z,7.80
2023-01-21T22:51:23.371Z,7.68
2023-01-21T22:53:51.072Z,7.64
2023-01-21T22:56:20.258Z,7.59
2023-01-21T22:58:47.526Z,7.56
2023-01-21T23:01:25.886Z,7.57
2023-01-21T23:03:53.326Z,7.57
2023-01-21T23:06:20.643Z,7.62
2023-01-21T23:08:47.882Z,7.85
2023-01-21T23:11:15.663Z,7.89
2023-01-21T23:13:43.063Z,7.88
2023-01-21T23:16:11.991Z,7.87
2023-01-21T23:18:40.830Z,7.87
2023-01-21T23:21:10.048Z,7.74
2023-01-21T23:23:38.206Z,7.70
2023-01-21T23:26:06.244Z,7.64
2023-01-21T23:28:33.839Z,7.68
2023-01-21T23:31:05.810Z,7.68
2023-01-21T23:33:33.618Z,7.39
2023-01-21T23:36:01.317Z,7.41
2023-01-21T23:38:29.291Z,7.55
2023-01-21T23:40:57.209Z,7.77
2023-01-21T23:43:26.552Z,7.80
2023-01-21T23:45:54.756Z,7.75
2023-01-21T23:48:22.447Z,7.69
2023-01-21T23:50:49.625Z,7.39
2023-01-21T23:53:17.428Z,7.32
2023-01-21T23:55:44.711Z,7.40
2023-01-21T23:58:12.269Z,7.43
